Time;durP1;ratioP1;P1;durP2;ratioP2;P2;SDS_P1;SDS_P2;PMS_P1;PMS_P2;Temp;Humidity;BMP_temperature;BMP_pressure;BME280_temperature;BME280_humidity;BME280_pressure;Samples;Min_cycle;Max_cycle;Signal;HPM_P1;HPM_P2
2022/08/12 00:44:16;;;;;;;5.00;4.60;;;16.30;99.90;;;;;;5024087;28;20217;-76
2022/08/12 00:46:49;;;;;;;5.07;4.67;;;16.30;99.90;;;;;;5024970;28;20276;-76
2022/08/12 00:49:17;;;;;;;5.40;4.90;;;16.20;99.90;;;;;;5022410;28;20208;-76
2022/08/12 00:54:32;;;;;;;5.17;4.77;;;16.10;99.90;;;;;;5021162;28;20212;-76
2022/08/12 00:57:03;;;;;;;5.40;4.90;;;16.10;99.90;;;;;;5029253;28;20238;-76
2022/08/12 00:59:30;;;;;;;5.23;4.83;;;16.10;99.90;;;;;;5024698;28;20222;-76
2022/08/12 01:02:01;;;;;;;4.93;4.60;;;16.00;99.90;;;;;;5028994;28;20713;-76
2022/08/12 01:12:48;;;;;;;5.10;4.70;;;15.90;99.90;;;;;;5024047;28;20258;-78
2022/08/12 01:15:15;;;;;;;5.13;4.73;;;15.90;99.90;;;;;;5026463;28;20288;-77
2022/08/12 01:17:44;;;;;;;5.23;4.83;;;15.90;99.90;;;;;;5023209;28;20615;-78
2022/08/12 01:20:19;;;;;;;5.40;5.00;;;15.80;99.90;;;;;;5022108;28;20268;-76
2022/08/12 01:23:23;;;;;;;5.00;4.70;;;15.80;99.90;;;;;;5023968;28;20200;-76
2022/08/12 01:25:53;;;;;;;5.80;5.30;;;15.80;99.90;;;;;;5020689;28;20197;-76
2022/08/12 01:28:20;;;;;;;5.33;4.93;;;15.70;99.90;;;;;;5019735;28;20250;-77
2022/08/12 01:30:49;;;;;;;5.10;4.80;;;15.70;99.90;;;;;;5027749;28;20262;-77
2022/08/12 01:33:18;;;;;;;5.13;4.83;;;15.70;99.90;;;;;;5023329;28;20630;-77
2022/08/12 01:35:54;;;;;;;5.40;5.00;;;15.70;99.90;;;;;;5028932;28;20751;-77
2022/08/12 01:38:22;;;;;;;5.40;5.00;;;15.70;99.90;;;;;;5025787;28;20199;-77
2022/08/12 01:40:51;;;;;;;5.50;5.10;;;15.70;99.90;;;;;;5024294;28;20196;-77
2022/08/12 01:43:23;;;;;;;5.33;4.97;;;15.70;99.90;;;;;;5023627;28;20229;-78
2022/08/12 01:46:02;;;;;;;5.33;4.93;;;15.70;99.90;;;;;;5022940;28;20298;-76
2022/08/12 01:48:40;;;;;;;5.77;5.30;;;15.70;99.90;;;;;;5028646;28;20195;-77
2022/08/12 01:51:20;;;;;;;5.30;4.90;;;15.70;99.90;;;;;;5024030;28;20246;-77
2022/08/12 01:53:57;;;;;;;5.30;4.90;;;15.70;99.90;;;;;;5022297;28;20225;-77
2022/08/12 01:56:26;;;;;;;5.40;5.00;;;15.70;99.90;;;;;;5020694;28;20260;-77
2022/08/12 02:01:48;;;;;;;5.10;4.70;;;15.60;99.90;;;;;;5029112;28;20203;-76
2022/08/12 02:13:08;;;;;;;5.30;4.90;;;15.50;99.90;;;;;;5031791;28;20285;-76
2022/08/12 02:15:45;;;;;;;4.93;4.50;;;15.40;99.90;;;;;;5031057;28;20196;-78
2022/08/12 02:18:24;;;;;;;5.20;4.80;;;15.40;99.90;;;;;;5027664;28;20678;-76
2022/08/12 02:21:00;;;;;;;5.40;5.00;;;15.30;99.90;;;;;;5026168;28;20254;-77
2022/08/12 02:23:27;;;;;;;5.70;5.20;;;15.20;99.90;;;;;;5032924;28;20219;-76
2022/08/12 02:25:59;;;;;;;5.70;5.30;;;15.10;99.90;;;;;;5027003;28;20429;-77
2022/08/12 02:28:26;;;;;;;5.57;5.17;;;15.10;99.90;;;;;;5028545;28;20231;-76
2022/08/12 02:30:55;;;;;;;6.23;5.70;;;15.10;99.90;;;;;;5034177;28;20271;-76
2022/08/12 02:33:22;;;;;;;5.90;5.50;;;15.00;99.90;;;;;;5034040;28;20228;-76
2022/08/12 02:35:50;;;;;;;5.40;5.00;;;15.00;99.90;;;;;;5035564;28;20203;-76
2022/08/12 02:38:18;;;;;;;5.30;4.90;;;15.00;99.90;;;;;;5034226;28;20196;-79
2022/08/12 02:40:49;;;;;;;5.53;5.03;;;15.00;99.90;;;;;;5033983;28;20260;-76
2022/08/12 02:43:22;;;;;;;5.63;5.23;;;15.00;99.90;;;;;;5033526;28;20230;-76
2022/08/12 02:45:56;;;;;;;5.33;4.93;;;14.90;99.90;;;;;;5029689;28;20255;-76
2022/08/12 02:48:29;;;;;;;5.20;4.80;;;14.90;99.90;;;;;;5027334;28;20197;-76
2022/08/12 02:50:58;;;;;;;6.10;5.60;;;14.90;99.90;;;;;;5025204;28;20200;-77
2022/08/12 02:53:27;;;;;;;6.00;5.50;;;14.90;99.90;;;;;;5032121;28;20219;-81
2022/08/12 02:55:55;;;;;;;6.50;5.07;;;14.80;99.90;;;;;;5049928;28;20283;-77
2022/08/12 02:58:22;;;;;;;5.40;5.00;;;14.70;99.90;;;;;;5032759;28;20289;-76
2022/08/12 03:00:49;;;;;;;6.10;5.60;;;14.70;99.90;;;;;;5027067;28;20213;-76
2022/08/12 03:03:21;;;;;;;5.67;5.27;;;14.70;99.90;;;;;;5027699;28;20721;-76
2022/08/12 03:05:51;;;;;;;6.80;6.20;;;14.70;99.90;;;;;;5033444;28;20196;-77
2022/08/12 03:08:20;;;;;;;6.00;5.47;;;14.70;99.90;;;;;;5029348;28;20215;-76
2022/08/12 03:10:51;;;;;;;6.27;5.77;;;14.70;99.90;;;;;;5032321;28;20208;-76
2022/08/12 03:13:25;;;;;;;5.90;5.40;;;14.60;99.90;;;;;;5033010;28;20224;-76
2022/08/12 03:15:54;;;;;;;5.90;5.50;;;14.60;99.90;;;;;;5025014;28;20253;-77
2022/08/12 03:18:29;;;;;;;6.20;5.60;;;14.50;99.90;;;;;;5029678;28;20202;-77
2022/08/12 03:20:57;;;;;;;6.03;5.53;;;14.50;99.90;;;;;;5023555;28;20292;-76
2022/08/12 03:23:24;;;;;;;6.67;6.10;;;14.50;99.90;;;;;;5028538;28;20588;-78
2022/08/12 03:25:55;;;;;;;6.33;5.83;;;14.50;99.90;;;;;;5030652;28;20235;-77
2022/08/12 03:31:05;;;;;;;6.47;5.97;;;14.40;99.90;;;;;;5026043;28;20202;-76
2022/08/12 03:33:36;;;;;;;6.60;6.00;;;14.40;99.90;;;;;;5028850;28;20243;-79
2022/08/12 03:36:05;;;;;;;8.17;6.67;;;14.30;99.90;;;;;;5025579;28;20199;-76
2022/08/12 03:38:39;;;;;;;7.13;6.53;;;14.30;99.90;;;;;;5024169;28;20207;-78
2022/08/12 04:00:41;;;;;;;7.47;6.67;;;14.10;99.90;;;;;;5025309;28;20199;-78
2022/08/12 04:03:50;;;;;;;7.70;7.00;;;14.10;99.90;;;;;;5030045;28;20212;-78
2022/08/12 04:05:57;;;;;;;7.37;6.77;;;14.00;99.90;;;;;;5024861;28;20185;-78
2022/08/12 04:08:25;;;;;;;6.97;6.47;;;14.00;99.90;;;;;;5026377;28;20188;-78
2022/08/12 04:13:37;;;;;;;6.67;6.10;;;14.00;99.90;;;;;;5022679;28;20220;-79
2022/08/12 04:16:06;;;;;;;7.47;6.40;;;14.00;99.90;;;;;;5026051;28;20232;-77
2022/08/12 04:18:34;;;;;;;6.97;6.37;;;14.00;99.90;;;;;;5021946;28;20197;-77
2022/08/12 04:21:03;;;;;;;7.33;6.70;;;14.00;99.90;;;;;;5030908;28;20200;-77
2022/08/12 04:23:32;;;;;;;7.00;6.40;;;14.00;99.90;;;;;;5027069;28;20719;-77
2022/08/12 04:25:59;;;;;;;7.07;6.50;;;14.00;99.90;;;;;;5024798;28;20204;-77
2022/08/12 04:28:27;;;;;;;6.90;6.40;;;14.10;99.90;;;;;;5027530;28;20204;-77
2022/08/12 04:30:55;;;;;;;6.67;6.07;;;14.10;99.90;;;;;;5024575;28;20196;-77
2022/08/12 04:33:24;;;;;;;7.63;6.90;;;14.10;99.90;;;;;;5029044;28;20213;-77
2022/08/12 04:35:50;;;;;;;6.67;6.17;;;14.10;99.90;;;;;;5024507;28;20608;-77
2022/08/12 04:38:20;;;;;;;6.90;6.40;;;14.10;99.90;;;;;;5029092;28;20200;-78
2022/08/12 04:40:47;;;;;;;7.10;6.50;;;14.20;99.90;;;;;;5030195;28;20253;-77
2022/08/12 04:43:14;;;;;;;7.07;6.47;;;14.20;99.90;;;;;;5025694;28;20223;-78
2022/08/12 04:45:42;;;;;;;6.70;6.20;;;14.30;99.90;;;;;;5025796;28;20200;-77
2022/08/12 04:48:09;;;;;;;7.17;6.57;;;14.30;99.90;;;;;;5028689;28;20228;-78
2022/08/12 04:50:35;;;;;;;7.40;6.80;;;14.30;99.90;;;;;;5025545;28;20237;-78
2022/08/12 04:53:02;;;;;;;6.77;6.27;;;14.30;99.90;;;;;;5025260;28;20208;-78
2022/08/12 04:55:32;;;;;;;6.63;6.13;;;14.40;99.90;;;;;;5022027;28;20219;-77
2022/08/12 04:57:59;;;;;;;6.70;6.20;;;14.40;99.90;;;;;;5028805;28;20313;-79
2022/08/12 05:00:26;;;;;;;6.87;6.27;;;14.40;99.90;;;;;;5026131;28;20195;-78
2022/08/12 05:02:53;;;;;;;6.50;6.00;;;14.40;99.90;;;;;;5025313;28;20612;-78
2022/08/12 05:05:22;;;;;;;6.90;6.30;;;14.40;99.90;;;;;;5023787;28;20192;-78
2022/08/12 05:07:49;;;;;;;6.40;5.90;;;14.50;99.90;;;;;;5029204;28;20195;-78
2022/08/12 05:10:16;;;;;;;6.67;6.07;;;14.60;99.90;;;;;;5025307;28;20189;-79
2022/08/12 05:12:48;;;;;;;7.00;6.40;;;14.60;99.90;;;;;;5025614;28;20220;-78
2022/08/12 05:15:14;;;;;;;7.00;5.90;;;14.70;99.90;;;;;;5028398;28;20283;-78
2022/08/12 05:17:41;;;;;;;6.97;6.37;;;14.90;99.90;;;;;;5029686;28;20197;-78
2022/08/12 05:20:10;;;;;;;6.50;6.00;;;15.10;99.90;;;;;;5025407;28;20450;-78
2022/08/12 05:22:38;;;;;;;6.50;6.00;;;15.20;99.90;;;;;;5027709;28;20200;-78
2022/08/12 05:25:06;;;;;;;6.70;6.20;;;15.30;99.90;;;;;;5023693;28;20215;-79
2022/08/12 05:27:32;;;;;;;6.93;6.40;;;15.40;99.90;;;;;;5025073;28;20194;-78
2022/08/12 05:30:01;;;;;;;5.60;5.20;;;15.70;99.90;;;;;;5024987;28;20206;-81
2022/08/12 05:32:28;;;;;;;7.10;6.47;;;15.90;99.90;;;;;;5028065;28;20232;-80
2022/08/12 05:34:54;;;;;;;6.43;5.83;;;16.20;99.90;;;;;;5027652;28;20220;-78
2022/08/12 05:37:22;;;;;;;4.53;4.10;;;16.40;99.90;;;;;;5026557;28;20196;-78
2022/08/12 05:39:48;;;;;;;3.77;3.10;;;16.60;99.90;;;;;;5025865;28;20199;-78
2022/08/12 05:42:15;;;;;;;5.43;3.23;;;16.80;99.90;;;;;;5025277;28;20198;-78
2022/08/12 05:44:42;;;;;;;3.40;3.00;;;17.00;99.90;;;;;;5070404;23;20232;-79
2022/08/12 05:47:13;;;;;;;4.50;3.40;;;17.10;99.90;;;;;;5045938;28;20637;-79
2022/08/12 05:49:40;;;;;;;3.40;3.00;;;17.30;99.90;;;;;;5056812;28;20232;-80
2022/08/12 05:52:07;;;;;;;3.77;3.47;;;17.80;99.90;;;;;;5055323;28;20566;-79
2022/08/12 05:54:35;;;;;;;6.57;6.00;;;18.00;99.90;;;;;;5055776;28;20223;-80
2022/08/12 05:57:02;;;;;;;5.27;4.83;;;18.10;99.90;;;;;;5050121;28;20199;-79
2022/08/12 05:59:29;;;;;;;7.50;6.03;;;18.10;99.90;;;;;;5057714;28;20580;-80
2022/08/12 06:02:02;;;;;;;6.90;6.30;;;18.00;99.90;;;;;;5057741;28;20191;-79
2022/08/12 06:04:32;;;;;;;6.60;6.00;;;17.90;99.90;;;;;;5053920;28;20227;-80
2022/08/12 06:07:00;;;;;;;5.40;4.90;;;17.90;99.90;;;;;;5054455;28;20187;-80
2022/08/12 06:09:29;;;;;;;4.87;2.93;;;17.90;99.90;;;;;;5056402;28;20241;-80
2022/08/12 06:11:56;;;;;;;3.33;3.03;;;18.00;99.90;;;;;;5057828;28;20199;-80
2022/08/12 06:14:23;;;;;;;3.33;2.90;;;18.00;99.90;;;;;;5056940;28;20662;-81
2022/08/12 06:16:50;;;;;;;3.17;2.87;;;18.00;99.90;;;;;;5055608;28;20199;-79
2022/08/12 06:19:17;;;;;;;3.00;2.70;;;18.10;99.90;;;;;;5055597;28;20421;-80
2022/08/12 06:21:47;;;;;;;3.23;2.73;;;18.10;99.90;;;;;;5052926;28;20210;-80
2022/08/12 06:24:16;;;;;;;3.30;3.00;;;18.20;99.90;;;;;;5057087;28;20586;-80
2022/08/12 06:26:43;;;;;;;4.30;3.10;;;18.30;99.90;;;;;;5053214;28;20200;-80
2022/08/12 06:29:16;;;;;;;5.90;5.30;;;18.50;99.90;;;;;;5047911;28;20263;-80
2022/08/12 06:31:44;;;;;;;5.50;5.00;;;18.70;99.90;;;;;;5053488;28;20201;-80
2022/08/12 06:34:13;;;;;;;5.70;5.30;;;18.80;99.90;;;;;;5047571;28;20306;-80
2022/08/12 06:36:40;;;;;;;6.37;5.87;;;18.90;99.90;;;;;;5057683;28;20201;-81
2022/08/12 06:39:08;;;;;;;6.27;5.77;;;19.00;99.90;;;;;;5048057;28;20270;-80
2022/08/12 06:44:21;;;;;;;5.40;5.00;;;19.20;99.90;;;;;;5053263;28;20231;-80
2022/08/12 06:46:47;;;;;;;5.77;5.37;;;19.50;99.90;;;;;;5053159;28;20209;-80
2022/08/12 06:49:14;;;;;;;5.67;5.20;;;19.70;99.90;;;;;;5049337;28;20613;-80
2022/08/12 06:51:41;;;;;;;5.80;5.37;;;19.90;99.90;;;;;;5056407;28;20198;-80
2022/08/12 06:54:10;;;;;;;4.17;3.87;;;20.10;99.90;;;;;;5055962;28;20503;-81
2022/08/12 06:56:37;;;;;;;4.57;3.13;;;20.30;99.90;;;;;;5053996;28;20202;-81
2022/08/12 06:59:04;;;;;;;3.43;2.70;;;20.50;99.90;;;;;;5055159;28;20211;-80
2022/08/12 07:01:31;;;;;;;3.93;3.10;;;20.50;99.90;;;;;;5055419;28;20225;-81
2022/08/12 07:03:58;;;;;;;8.03;4.20;;;20.80;99.90;;;;;;5053073;28;20219;-81
2022/08/12 07:06:25;;;;;;;6.00;5.50;;;21.00;99.90;;;;;;5049034;28;20202;-81
2022/08/12 07:08:52;;;;;;;3.63;2.83;;;21.10;99.90;;;;;;5055554;28;20195;-80
2022/08/12 07:11:20;;;;;;;4.23;2.93;;;21.20;99.90;;;;;;5046791;28;20218;-81
2022/08/12 07:13:51;;;;;;;4.67;4.27;;;21.40;99.90;;;;;;5054492;28;20211;-80
2022/08/12 07:16:19;;;;;;;6.10;5.60;;;21.50;99.90;;;;;;5056380;28;20600;-81
2022/08/12 07:18:52;;;;;;;6.37;5.77;;;21.50;99.90;;;;;;5042690;28;20617;-80
2022/08/12 07:21:19;;;;;;;6.93;5.97;;;21.80;99.90;;;;;;5051561;28;20199;-80
2022/08/12 07:23:46;;;;;;;6.80;6.30;;;22.20;99.90;;;;;;5054402;28;20711;-81
2022/08/12 07:26:15;;;;;;;3.63;3.30;;;22.50;99.90;;;;;;5054972;28;20192;-81
2022/08/12 07:28:46;;;;;;;5.70;5.20;;;22.80;99.90;;;;;;5055587;28;20199;-81
2022/08/12 07:31:13;;;;;;;4.37;3.60;;;23.20;99.90;;;;;;5054581;28;20203;-80
2022/08/12 07:33:42;;;;;;;5.70;5.20;;;23.60;99.90;;;;;;5056529;28;20726;-81
2022/08/12 07:36:10;;;;;;;7.57;5.80;;;24.00;99.90;;;;;;5055351;28;20296;-80
2022/08/12 07:38:42;;;;;;;5.97;5.37;;;24.20;99.90;;;;;;5052892;28;20204;-81
2022/08/12 07:41:11;;;;;;;4.90;4.33;;;24.80;99.70;;;;;;5052553;28;20203;-80
2022/08/12 07:43:41;;;;;;;6.80;6.30;;;25.30;97.30;;;;;;5053379;28;20292;-80
2022/08/12 07:46:13;;;;;;;4.53;4.13;;;25.70;96.70;;;;;;5055674;28;20270;-81
2022/08/12 07:48:42;;;;;;;5.27;4.87;;;26.00;96.60;;;;;;5056021;28;20191;-80
2022/08/12 07:51:10;;;;;;;6.70;6.00;;;26.20;96.30;;;;;;5043342;28;20195;-81
2022/08/12 07:53:37;;;;;;;6.17;5.63;;;26.50;95.90;;;;;;5056596;28;20711;-81
2022/08/12 07:56:06;;;;;;;4.37;3.97;;;26.60;94.70;;;;;;5051457;28;20313;-81
2022/08/12 07:58:38;;;;;;;4.50;4.10;;;26.80;93.70;;;;;;5053209;28;20203;-82
2022/08/12 08:01:05;;;;;;;7.57;4.00;;;26.90;94.60;;;;;;5054429;28;20233;-81
2022/08/12 08:03:33;;;;;;;3.50;3.20;;;27.30;94.20;;;;;;5046307;28;20268;-81
2022/08/12 08:06:00;;;;;;;6.50;6.00;;;27.50;93.20;;;;;;5051982;28;20183;-80
2022/08/12 08:08:28;;;;;;;7.33;5.50;;;27.30;93.50;;;;;;5051673;28;20196;-81
2022/08/12 08:12:52;;;;;;;6.83;6.23;;;27.60;93.10;;;;;;5052950;28;20722;-81
2022/08/12 08:13:44;;;;;;;6.60;6.00;;;27.80;92.40;;;;;;5055608;28;20215;-81
2022/08/12 08:16:14;;;;;;;6.07;5.57;;;28.00;92.40;;;;;;5054120;28;20219;-81
2022/08/12 08:18:43;;;;;;;6.20;5.60;;;28.30;91.90;;;;;;5054756;28;20199;-80
2022/08/12 08:21:10;;;;;;;4.53;4.20;;;28.50;91.00;;;;;;5054928;28;20245;-81
2022/08/12 08:26:23;;;;;;;4.60;4.30;;;28.70;87.30;;;;;;5048109;28;20191;-80
2022/08/12 08:28:50;;;;;;;6.57;5.77;;;28.80;87.70;;;;;;5052337;28;20195;-81
2022/08/12 08:31:17;;;;;;;7.40;6.33;;;28.70;89.60;;;;;;5052244;28;20219;-80
2022/08/12 08:33:45;;;;;;;6.77;5.67;;;28.90;87.80;;;;;;5054832;28;20215;-80
2022/08/12 08:36:12;;;;;;;5.10;4.70;;;29.10;87.30;;;;;;5055168;28;20256;-82
2022/08/12 08:38:43;;;;;;;7.87;5.60;;;29.20;87.30;;;;;;5055440;28;20202;-82
2022/08/12 08:43:57;;;;;;;6.10;5.50;;;29.20;85.20;;;;;;5051568;28;20301;-81
2022/08/12 08:46:24;;;;;;;4.77;4.37;;;28.80;83.50;;;;;;5052408;28;20191;-80
2022/08/12 08:48:52;;;;;;;3.40;3.00;;;28.50;86.80;;;;;;5049958;28;20199;-80
2022/08/12 08:51:19;;;;;;;5.13;4.73;;;28.70;83.70;;;;;;5050770;28;20222;-80
2022/08/12 08:53:46;;;;;;;6.90;5.83;;;28.80;83.70;;;;;;5051680;28;20222;-83
2022/08/12 08:56:13;;;;;;;6.50;6.00;;;28.90;85.00;;;;;;5051114;28;20270;-81
2022/08/12 08:58:44;;;;;;;6.30;5.90;;;29.20;83.40;;;;;;5050570;28;20195;-86
2022/08/12 09:01:10;;;;;;;5.70;5.30;;;29.40;81.90;;;;;;5062546;28;20253;-82
2022/08/12 09:03:37;;;;;;;5.93;5.47;;;29.00;78.00;;;;;;5047629;28;20223;-83
2022/08/12 09:06:06;;;;;;;5.73;5.33;;;28.80;76.00;;;;;;5049339;28;20636;-80
2022/08/12 09:08:33;;;;;;;2.60;2.40;;;28.80;76.30;;;;;;5052169;28;20195;-80
2022/08/12 09:13:26;;;;;;;4.13;2.40;;;29.40;76.20;;;;;;5047751;28;20249;-80
2022/08/12 09:13:45;;;;;;;3.57;2.27;;;28.90;74.20;;;;;;5048010;28;20234;-81
2022/08/12 09:16:12;;;;;;;4.40;2.20;;;28.80;75.30;;;;;;5048612;28;20737;-81
2022/08/12 09:18:39;;;;;;;3.23;2.50;;;28.80;74.60;;;;;;5051443;28;20609;-80
2022/08/12 09:21:08;;;;;;;4.17;3.53;;;28.90;76.50;;;;;;5055218;28;20192;-80
2022/08/12 09:23:35;;;;;;;5.47;5.07;;;29.20;75.10;;;;;;5054914;28;20281;-80
2022/08/12 09:26:03;;;;;;;6.70;4.60;;;29.30;73.20;;;;;;5056666;28;20205;-81
2022/08/12 09:28:31;;;;;;;3.73;3.43;;;28.60;76.50;;;;;;5056779;28;20222;-80
2022/08/12 09:30:59;;;;;;;5.10;4.70;;;28.90;78.20;;;;;;5047500;28;20195;-80
2022/08/12 09:33:27;;;;;;;5.40;4.90;;;28.90;76.50;;;;;;5055521;28;20223;-80
2022/08/12 09:35:56;;;;;;;5.57;5.17;;;29.30;76.00;;;;;;5052617;28;20211;-81
2022/08/12 09:38:24;;;;;;;5.40;5.00;;;29.60;73.70;;;;;;5053999;28;20211;-80
2022/08/12 09:40:51;;;;;;;4.03;2.40;;;29.90;75.10;;;;;;5057959;28;20250;-80
2022/08/12 09:46:03;;;;;;;3.80;2.30;;;30.30;73.00;;;;;;5055902;28;20199;-80
2022/08/12 09:48:32;;;;;;;4.50;4.10;;;30.30;72.20;;;;;;5058577;28;20190;-80
2022/08/12 09:50:59;;;;;;;5.00;4.67;;;30.20;72.60;;;;;;5058913;28;20192;-78
2022/08/12 09:53:27;;;;;;;6.17;4.90;;;30.40;70.10;;;;;;5052117;28;20215;-78
2022/08/12 09:55:55;;;;;;;5.53;5.13;;;29.80;72.30;;;;;;5051565;28;20211;-79
2022/08/12 09:58:27;;;;;;;5.53;5.13;;;30.00;72.10;;;;;;5048497;28;20294;-78
2022/08/12 10:00:55;;;;;;;5.50;5.00;;;30.00;68.80;;;;;;5035199;28;20242;-77
2022/08/12 10:03:25;;;;;;;5.50;5.20;;;29.80;71.60;;;;;;5053598;28;20755;-77
2022/08/12 10:05:53;;;;;;;5.53;5.20;;;30.00;70.00;;;;;;5048255;28;20192;-78
2022/08/12 10:08:21;;;;;;;5.20;4.90;;;30.00;71.20;;;;;;5054404;28;20253;-80
2022/08/12 10:13:42;;;;;;;5.60;5.07;;;29.70;68.90;;;;;;5048345;28;20225;-78
2022/08/12 10:16:11;;;;;;;5.53;5.03;;;29.50;67.80;;;;;;5047708;28;20684;-79
2022/08/12 10:18:40;;;;;;;4.93;2.20;;;29.30;72.50;;;;;;5050302;28;20576;-78
2022/08/12 10:21:09;;;;;;;3.37;2.13;;;29.30;70.10;;;;;;5053300;28;20245;-77
2022/08/12 10:23:36;;;;;;;5.77;2.77;;;29.10;69.10;;;;;;5053984;28;20253;-77
2022/08/12 10:31:34;;;;;;;3.30;3.00;;;28.30;69.20;;;;;;5049821;28;20191;-78
2022/08/12 10:34:04;;;;;;;3.23;1.80;;;28.00;71.20;;;;;;5050512;28;20276;-78
2022/08/12 10:36:31;;;;;;;4.90;3.97;;;28.10;71.50;;;;;;5053977;28;20203;-78
2022/08/12 10:38:58;;;;;;;5.53;4.57;;;28.20;71.30;;;;;;5052343;28;20238;-78
2022/08/12 10:44:14;;;;;;;5.00;4.70;;;28.10;70.30;;;;;;5049110;28;20222;-77
2022/08/12 10:46:41;;;;;;;5.43;4.93;;;28.30;72.60;;;;;;5050447;28;20869;-77
2022/08/12 10:49:11;;;;;;;6.13;4.67;;;28.20;72.60;;;;;;5049458;28;20301;-77
2022/08/12 10:51:38;;;;;;;5.17;4.77;;;28.20;69.60;;;;;;5050366;28;20203;-77
2022/08/12 10:54:05;;;;;;;5.20;4.80;;;27.90;69.70;;;;;;5052134;28;20230;-78
2022/08/12 10:56:34;;;;;;;5.33;4.60;;;27.80;70.20;;;;;;5052250;28;20298;-77
2022/08/12 10:59:02;;;;;;;3.47;2.33;;;27.90;68.30;;;;;;5048314;28;20195;-80
2022/08/12 11:01:30;;;;;;;2.20;2.00;;;27.80;70.00;;;;;;5049939;28;20280;-77
2022/08/12 11:03:57;;;;;;;7.57;2.77;;;27.90;71.20;;;;;;5040794;28;20691;-76
2022/08/12 11:06:24;;;;;;;4.93;4.63;;;27.70;70.30;;;;;;5051805;28;20187;-76
2022/08/12 11:08:50;;;;;;;5.10;4.63;;;27.70;70.70;;;;;;5049242;28;20290;-76
2022/08/12 11:11:19;;;;;;;5.63;5.17;;;28.00;69.80;;;;;;5050560;28;20195;-77
2022/08/12 11:13:47;;;;;;;5.00;4.70;;;27.70;68.60;;;;;;5051103;28;20315;-76
2022/08/12 11:16:16;;;;;;;5.20;4.80;;;27.60;70.50;;;;;;5053225;28;20202;-76
2022/08/12 11:18:43;;;;;;;4.90;4.60;;;27.60;70.00;;;;;;5050659;28;20569;-79
2022/08/12 11:21:10;;;;;;;4.90;4.50;;;27.60;69.70;;;;;;5045313;28;20192;-79
2022/08/12 11:23:37;;;;;;;5.03;4.50;;;27.70;71.70;;;;;;5054613;28;20211;-78
2022/08/12 11:26:05;;;;;;;7.03;4.87;;;27.70;70.90;;;;;;5052089;28;20195;-78
2022/08/12 11:28:32;;;;;;;2.63;2.30;;;27.60;70.00;;;;;;5052177;28;20287;-79
2022/08/12 11:31:00;;;;;;;5.50;5.10;;;27.50;70.80;;;;;;5051952;28;20213;-79
2022/08/12 11:33:27;;;;;;;5.40;4.90;;;27.30;69.70;;;;;;5048941;28;20569;-78
2022/08/12 11:35:53;;;;;;;3.00;2.10;;;27.20;71.30;;;;;;5050292;28;20276;-79
2022/08/12 11:38:20;;;;;;;3.27;2.17;;;27.30;72.90;;;;;;5049902;28;20191;-78
2022/08/12 11:40:47;;;;;;;4.57;1.80;;;27.30;71.20;;;;;;5052476;28;20191;-79
2022/08/12 11:43:15;;;;;;;4.13;3.83;;;27.30;70.30;;;;;;5050069;28;20202;-79
2022/08/12 11:45:42;;;;;;;4.27;3.97;;;27.60;72.20;;;;;;5075755;23;20264;-78
2022/08/12 11:48:10;;;;;;;1.90;1.80;;;27.70;71.30;;;;;;5054528;28;20210;-77
2022/08/12 11:50:37;;;;;;;3.67;2.20;;;27.90;72.60;;;;;;5056716;28;20558;-77
2022/08/12 11:53:04;;;;;;;3.27;2.20;;;28.00;71.40;;;;;;5055385;28;20261;-77
2022/08/12 11:55:31;;;;;;;2.33;2.10;;;28.10;71.90;;;;;;5054893;28;20268;-77
2022/08/12 11:57:58;;;;;;;3.67;2.10;;;28.10;71.30;;;;;;5055730;28;20245;-78
2022/08/12 12:00:25;;;;;;;2.30;2.10;;;28.00;69.80;;;;;;5056008;28;20199;-77
2022/08/12 12:02:52;;;;;;;3.47;2.13;;;27.80;71.20;;;;;;5052903;28;20667;-77
2022/08/12 12:05:21;;;;;;;3.27;2.00;;;27.70;70.80;;;;;;5054130;28;20273;-77
2022/08/12 12:07:47;;;;;;;2.43;2.27;;;27.50;71.20;;;;;;5054047;28;20730;-78
2022/08/12 12:10:17;;;;;;;4.87;2.33;;;27.50;72.50;;;;;;5054508;28;20252;-78
2022/08/12 12:12:44;;;;;;;2.77;2.00;;;27.60;72.40;;;;;;5054269;28;20245;-79
2022/08/12 12:15:12;;;;;;;3.10;2.10;;;27.70;70.70;;;;;;5051254;28;20212;-77
2022/08/12 12:17:41;;;;;;;3.13;1.83;;;27.80;71.50;;;;;;5052109;28;20226;-77
2022/08/12 12:20:10;;;;;;;2.20;2.00;;;27.50;70.50;;;;;;5050505;28;20257;-77
2022/08/12 12:22:39;;;;;;;4.53;2.13;;;27.30;71.80;;;;;;5051086;28;20200;-78
2022/08/12 12:25:07;;;;;;;2.53;2.33;;;27.30;71.60;;;;;;5052984;28;20230;-77
2022/08/12 12:27:45;;;;;;;3.27;2.00;;;27.30;71.00;;;;;;5053164;28;20253;-79
2022/08/12 12:30:12;;;;;;;2.93;2.00;;;27.30;69.90;;;;;;5047224;28;20183;-77
2022/08/12 12:32:39;;;;;;;4.57;4.20;;;27.10;70.50;;;;;;5055600;28;20202;-77
2022/08/12 12:35:07;;;;;;;6.13;5.00;;;27.00;71.70;;;;;;5052180;28;20257;-78
2022/08/12 12:37:34;;;;;;;4.63;2.50;;;27.10;72.20;;;;;;5042581;28;20262;-77
2022/08/12 12:40:03;;;;;;;2.23;1.90;;;27.20;71.40;;;;;;5054626;28;20203;-77
2022/08/12 12:42:29;;;;;;;5.67;4.77;;;27.00;72.00;;;;;;5053780;28;20199;-78
2022/08/12 12:44:56;;;;;;;4.63;4.40;;;26.90;72.40;;;;;;5053085;28;20227;-77
2022/08/12 12:47:23;;;;;;;5.10;4.60;;;27.20;72.80;;;;;;5054869;28;20652;-77
2022/08/12 12:49:50;;;;;;;5.20;4.80;;;27.40;69.60;;;;;;5055697;28;20540;-78
2022/08/12 12:52:16;;;;;;;2.10;1.90;;;27.60;69.60;;;;;;5052266;28;20192;-77
2022/08/12 12:54:51;;;;;;;2.53;2.30;;;27.80;69.40;;;;;;5055495;28;20222;-78
2022/08/12 12:57:19;;;;;;;3.17;2.27;;;28.10;71.30;;;;;;5053362;28;20218;-78
2022/08/12 13:00:13;;;;;;;8.33;6.17;;;28.20;70.90;;;;;;5052776;28;20202;-79
2022/08/12 13:02:39;;;;;;;7.97;6.10;;;27.80;69.10;;;;;;5053942;28;20191;-78
2022/08/12 13:05:06;;;;;;;7.37;4.30;;;27.30;70.50;;;;;;5054579;28;20218;-77
2022/08/12 13:07:39;;;;;;;4.03;3.63;;;27.00;70.00;;;;;;5054576;28;20563;-77
2022/08/12 13:10:06;;;;;;;5.87;4.73;;;26.90;71.10;;;;;;5050744;28;20199;-78
2022/08/12 13:12:35;;;;;;;4.97;4.57;;;26.80;70.70;;;;;;5052210;28;20652;-78
2022/08/12 13:15:03;;;;;;;5.00;4.70;;;26.70;70.70;;;;;;5053012;28;20215;-77
2022/08/12 13:17:30;;;;;;;4.77;4.47;;;26.70;71.10;;;;;;5054791;28;20215;-77
2022/08/12 13:20:03;;;;;;;4.40;4.10;;;26.70;71.20;;;;;;5053219;28;20285;-77
2022/08/12 13:22:30;;;;;;;4.70;4.30;;;27.00;70.50;;;;;;5053914;28;20202;-78
2022/08/12 13:24:58;;;;;;;4.80;4.40;;;27.20;70.40;;;;;;5054664;28;20215;-79
2022/08/12 13:27:28;;;;;;;4.60;4.10;;;27.50;70.00;;;;;;5051757;28;20241;-77
2022/08/12 13:29:56;;;;;;;5.33;3.03;;;27.80;71.20;;;;;;5046931;28;20231;-78
2022/08/12 13:32:23;;;;;;;2.73;2.03;;;27.90;70.10;;;;;;5055854;28;20191;-77
2022/08/12 13:34:52;;;;;;;4.83;4.53;;;28.10;69.20;;;;;;5052909;28;20276;-77
2022/08/12 13:37:23;;;;;;;2.97;2.08;;;28.10;69.50;;;;;;5049421;28;20448;-78
2022/08/12 13:39:51;;;;;;;4.67;4.37;;;28.10;69.80;;;;;;5051317;28;20203;-78
2022/08/12 13:42:19;;;;;;;4.50;4.07;;;28.00;68.50;;;;;;5049809;28;20200;-80
2022/08/12 13:44:46;;;;;;;4.30;3.90;;;28.00;69.20;;;;;;5052737;28;20227;-81
2022/08/12 13:47:14;;;;;;;4.70;4.30;;;28.10;70.10;;;;;;5048615;28;20609;-79
2022/08/12 13:49:41;;;;;;;5.13;4.43;;;28.00;69.30;;;;;;5048322;28;20261;-78
2022/08/12 13:52:07;;;;;;;5.07;4.30;;;28.00;69.20;;;;;;5052219;28;20199;-78
2022/08/12 13:54:34;;;;;;;4.43;4.13;;;27.90;69.70;;;;;;5046073;28;20215;-79
2022/08/12 13:57:01;;;;;;;4.63;4.20;;;27.70;69.20;;;;;;5053497;28;20230;-78
2022/08/12 13:59:28;;;;;;;4.70;4.30;;;27.60;69.70;;;;;;5053780;28;20609;-78
2022/08/12 14:01:55;;;;;;;5.20;4.77;;;27.50;70.00;;;;;;5047735;28;20195;-79
2022/08/12 14:04:24;;;;;;;5.83;5.30;;;27.40;70.50;;;;;;5048668;28;20724;-80
2022/08/12 14:06:52;;;;;;;6.20;5.63;;;27.30;70.00;;;;;;5049045;28;20204;-78
2022/08/12 14:09:19;;;;;;;7.87;5.83;;;27.50;71.00;;;;;;5056427;28;20219;-78
2022/08/12 14:11:47;;;;;;;5.23;4.83;;;27.70;72.40;;;;;;5056450;28;20191;-79
2022/08/12 14:14:13;;;;;;;4.80;4.50;;;27.60;72.70;;;;;;5051952;28;20215;-78
2022/08/12 14:16:40;;;;;;;4.50;4.20;;;27.50;72.10;;;;;;5049404;28;20219;-80
2022/08/12 14:19:07;;;;;;;2.60;2.10;;;27.50;72.30;;;;;;5057331;28;20553;-77
2022/08/12 14:21:35;;;;;;;2.67;2.17;;;27.40;72.00;;;;;;5054450;28;20626;-79
2022/08/12 14:24:02;;;;;;;4.53;4.20;;;27.40;73.50;;;;;;5055011;28;20251;-78
2022/08/12 14:26:29;;;;;;;4.50;4.20;;;27.50;73.10;;;;;;5043176;28;20216;-80
2022/08/12 14:28:56;;;;;;;6.00;5.17;;;27.60;72.20;;;;;;5052291;28;20195;-79
2022/08/12 14:31:22;;;;;;;3.30;2.20;;;27.60;71.50;;;;;;5044083;28;20610;-79
2022/08/12 14:33:51;;;;;;;4.53;2.20;;;27.40;71.40;;;;;;5045452;28;20258;-78
2022/08/12 14:36:20;;;;;;;4.80;4.50;;;27.30;72.20;;;;;;5054274;28;20191;-79
2022/08/12 14:38:52;;;;;;;4.70;4.40;;;27.30;73.70;;;;;;5043447;28;20199;-78
2022/08/12 14:41:22;;;;;;;4.73;2.40;;;27.40;72.80;;;;;;5055611;28;20210;-79
2022/08/12 14:43:50;;;;;;;4.23;2.37;;;27.60;71.80;;;;;;5051659;28;20241;-78
2022/08/12 14:46:19;;;;;;;4.60;2.27;;;27.70;71.20;;;;;;5053881;28;20226;-79
2022/08/12 14:48:49;;;;;;;4.10;2.27;;;27.80;71.00;;;;;;5049609;28;20611;-81